Time;durP1;ratioP1;P1;durP2;ratioP2;P2;SDS_P1;SDS_P2;PMS_P1;PMS_P2;Temp;Humidity;BMP_temperature;BMP_pressure;BME280_temperature;BME280_humidity;BME280_pressure;Samples;Min_cycle;Max_cycle;Signal;HPM_P1;HPM_P2
2022/11/27 00:00:30;;;;;;;32.47;18.38;;;;;;;2.83;100.00;101985.38;5090252;28;20079;-72
2022/11/27 00:02:56;;;;;;;29.17;16.95;;;;;;;2.79;100.00;101989.81;5089689;28;20031;-72
2022/11/27 00:05:21;;;;;;;25.05;13.40;;;;;;;2.81;100.00;101990.59;5090576;28;20078;-72
2022/11/27 00:07:46;;;;;;;28.27;15.02;;;;;;;2.91;100.00;101989.31;5090978;28;20035;-72
2022/11/27 00:10:12;;;;;;;30.55;15.15;;;;;;;2.89;100.00;101996.25;5090306;28;20038;-71
2022/11/27 00:12:37;;;;;;;35.15;19.48;;;;;;;2.85;100.00;101999.84;5090216;28;20031;-71
2022/11/27 00:15:03;;;;;;;42.83;23.67;;;;;;;2.82;100.00;101994.84;5090625;28;20024;-71
2022/11/27 00:17:29;;;;;;;29.27;16.02;;;;;;;2.79;100.00;101996.69;5090182;28;20024;-71
2022/11/27 00:19:54;;;;;;;30.98;15.70;;;;;;;2.76;100.00;101989.06;5089412;28;20031;-72
2022/11/27 00:22:19;;;;;;;29.50;16.15;;;;;;;2.71;100.00;102009.00;5080952;28;20490;-72
2022/11/27 00:24:45;;;;;;;24.40;13.05;;;;;;;2.64;100.00;102000.66;5090546;28;20048;-72
2022/11/27 00:27:11;;;;;;;25.95;14.73;;;;;;;2.65;100.00;102003.19;5089626;28;20040;-71
2022/11/27 00:29:36;;;;;;;27.38;15.05;;;;;;;2.57;100.00;101999.22;5090374;28;20080;-71
2022/11/27 00:32:02;;;;;;;22.48;13.23;;;;;;;2.56;100.00;101990.66;5085027;28;20099;-72
2022/11/27 00:34:27;;;;;;;24.75;14.27;;;;;;;2.55;100.00;101990.69;5079420;28;20157;-72
2022/11/27 00:36:53;;;;;;;25.40;13.88;;;;;;;2.46;100.00;102006.47;5087802;28;20055;-72
2022/11/27 00:39:18;;;;;;;21.33;13.50;;;;;;;2.44;100.00;102001.38;5082687;28;20099;-71
2022/11/27 00:41:44;;;;;;;21.63;12.30;;;;;;;2.52;100.00;102004.50;5086644;28;20066;-73
2022/11/27 00:44:11;;;;;;;20.15;12.85;;;;;;;2.52;100.00;102006.25;5085380;28;20141;-72
2022/11/27 00:46:37;;;;;;;19.52;11.40;;;;;;;2.56;100.00;102000.94;5086030;28;20024;-71
2022/11/27 00:49:04;;;;;;;18.63;11.63;;;;;;;2.59;100.00;102008.53;5096927;28;20024;-72
2022/11/27 00:51:31;;;;;;;21.00;10.65;;;;;;;2.57;100.00;102002.63;5088666;28;20489;-72
2022/11/27 00:53:57;;;;;;;27.58;13.70;;;;;;;2.64;100.00;102000.66;5092103;28;20390;-72
2022/11/27 00:56:29;;;;;;;67.50;31.33;;;;;;;2.65;100.00;102008.31;5093974;28;20032;-71
2022/11/27 00:58:55;;;;;;;22.73;12.90;;;;;;;2.67;100.00;101998.81;5089376;28;20024;-72
2022/11/27 01:01:27;;;;;;;21.33;12.95;;;;;;;2.69;100.00;102008.22;5089708;28;20040;-72
2022/11/27 01:03:54;;;;;;;16.45;10.52;;;;;;;2.67;100.00;101995.41;5094362;28;20494;-72
2022/11/27 01:06:19;;;;;;;20.00;12.38;;;;;;;2.64;100.00;101990.38;5089567;28;20039;-71
2022/11/27 01:08:46;;;;;;;24.65;14.20;;;;;;;2.57;100.00;101999.22;5089928;28;20028;-71
2022/11/27 01:11:17;;;;;;;19.80;10.45;;;;;;;2.52;100.00;101991.66;5089501;28;20491;-71
2022/11/27 01:13:43;;;;;;;23.45;12.05;;;;;;;2.54;100.00;101995.00;5087789;28;20096;-71
2022/11/27 01:16:12;;;;;;;24.08;13.02;;;;;;;2.52;100.00;101991.66;5089649;28;20482;-71
2022/11/27 01:18:40;;;;;;;22.40;13.52;;;;;;;2.49;100.00;102001.22;5089908;28;20118;-72
2022/11/27 01:21:05;;;;;;;26.25;14.65;;;;;;;2.47;100.00;101997.84;5092805;28;20036;-71
2022/11/27 01:23:31;;;;;;;17.80;11.55;;;;;;;2.46;100.00;101981.59;5093241;28;20425;-71
2022/11/27 01:26:03;;;;;;;17.08;11.10;;;;;;;2.41;100.00;101990.34;5090069;28;20032;-71
2022/11/27 01:28:29;;;;;;;19.05;11.38;;;;;;;2.27;100.00;101993.44;5089938;28;20035;-71
2022/11/27 01:30:55;;;;;;;17.23;10.93;;;;;;;2.27;100.00;101986.56;5090018;28;20475;-71
2022/11/27 01:33:20;;;;;;;21.23;11.95;;;;;;;2.36;100.00;102000.00;5096201;28;20060;-72
2022/11/27 01:35:57;;;;;;;18.13;11.23;;;;;;;2.29;100.00;102005.34;5091342;28;20413;-72
2022/11/27 01:38:24;;;;;;;16.10;9.82;;;;;;;2.27;100.00;101991.72;5089152;28;20039;-71
2022/11/27 01:41:16;;;;;;;13.73;9.52;;;;;;;2.25;100.00;101993.50;5093234;28;20119;-72
2022/11/27 01:43:42;;;;;;;15.50;10.38;;;;;;;2.22;100.00;101997.91;5096554;28;20123;-72
2022/11/27 01:46:28;;;;;;;17.85;10.93;;;;;;;2.13;100.00;101998.22;5093574;28;20130;-71
2022/11/27 01:49:10;;;;;;;14.82;9.18;;;;;;;2.24;100.00;101998.69;5092818;28;20386;-71
2022/11/27 01:52:05;;;;;;;12.88;8.68;;;;;;;2.25;100.00;102001.22;5096699;28;20494;-71
2022/11/27 01:54:38;;;;;;;13.50;8.15;;;;;;;2.27;100.00;101993.44;5089272;28;20475;-71
2022/11/27 01:57:08;;;;;;;11.40;7.50;;;;;;;2.25;100.00;101990.94;5101071;28;20027;-72
2022/11/27 01:59:34;;;;;;;13.07;7.95;;;;;;;2.08;100.00;101990.66;5094477;28;20036;-71
2022/11/27 02:02:01;;;;;;;14.02;7.75;;;;;;;2.11;100.00;101990.56;5092481;28;20046;-71
2022/11/27 02:04:27;;;;;;;13.30;8.07;;;;;;;2.14;100.00;101985.31;5093051;28;20071;-71
2022/11/27 02:06:56;;;;;;;11.93;7.20;;;;;;;2.16;100.00;101983.53;5094845;28;20070;-71
2022/11/27 02:09:21;;;;;;;11.45;7.22;;;;;;;2.18;100.00;101991.19;5092833;28;20067;-71
2022/11/27 02:11:50;;;;;;;14.10;7.32;;;;;;;2.12;100.00;101986.25;5093893;28;20064;-72
2022/11/27 02:14:26;;;;;;;8.13;4.97;;;;;;;2.32;100.00;101979.53;5089529;28;20028;-72
2022/11/27 02:17:08;;;;;;;18.20;7.40;;;;;;;2.51;100.00;101979.69;5092308;28;20028;-71
2022/11/27 02:19:40;;;;;;;8.10;5.40;;;;;;;2.50;100.00;101979.75;5092766;28;20031;-72
2022/11/27 02:22:22;;;;;;;6.30;4.28;;;;;;;2.49;100.00;101973.75;5093140;28;20127;-71
2022/11/27 02:25:17;;;;;;;8.00;4.90;;;;;;;2.59;100.00;101958.81;5088701;28;20135;-72
2022/11/27 02:28:10;;;;;;;8.57;4.60;;;;;;;2.53;100.00;101956.47;5086633;28;20438;-71
2022/11/27 02:30:45;;;;;;;8.52;5.57;;;;;;;2.65;100.00;101953.44;5080331;28;20043;-71
2022/11/27 02:33:15;;;;;;;9.27;4.53;;;;;;;2.69;100.00;101949.03;5094717;28;20055;-71
2022/11/27 02:35:49;;;;;;;5.22;3.95;;;;;;;2.56;100.00;101948.63;5094115;28;20288;-72
2022/11/27 02:38:16;;;;;;;6.50;4.25;;;;;;;2.52;100.00;101939.34;5094629;28;20039;-71
2022/11/27 02:40:52;;;;;;;6.85;4.05;;;;;;;2.50;100.00;101941.97;5092087;28;20077;-71
2022/11/27 02:43:29;;;;;;;5.60;4.45;;;;;;;2.42;100.00;101944.00;5093528;28;20028;-71
2022/11/27 02:45:57;;;;;;;7.18;4.47;;;;;;;2.40;100.00;101934.66;5095165;28;20026;-72
2022/11/27 02:48:29;;;;;;;7.28;4.30;;;;;;;2.44;100.00;101924.19;5093406;28;20028;-72
2022/11/27 02:50:55;;;;;;;5.82;4.05;;;;;;;2.43;100.00;101930.25;5091807;28;20027;-71
2022/11/27 02:53:26;;;;;;;6.10;4.28;;;;;;;2.41;100.00;101920.91;5091775;28;20050;-71
2022/11/27 02:55:55;;;;;;;6.05;3.90;;;;;;;2.35;100.00;101926.31;5093321;28;20042;-71
2022/11/27 02:58:24;;;;;;;8.88;3.95;;;;;;;2.21;100.00;101914.78;5089299;28;20027;-71
2022/11/27 03:00:49;;;;;;;8.88;4.53;;;;;;;2.22;100.00;101925.91;5088440;28;20188;-71
2022/11/27 03:03:21;;;;;;;7.18;4.07;;;;;;;2.21;100.00;101921.66;5095376;28;20031;-71
2022/11/27 03:05:50;;;;;;;7.97;4.07;;;;;;;2.19;100.00;101931.16;5091870;28;20027;-71
2022/11/27 03:08:24;;;;;;;8.98;4.68;;;;;;;2.17;100.00;101932.94;5088943;28;20035;-71
2022/11/27 03:11:01;;;;;;;5.80;4.28;;;;;;;2.14;100.00;101931.31;5093427;28;20027;-71
2022/11/27 03:13:29;;;;;;;8.25;4.47;;;;;;;2.12;100.00;101924.56;5090317;28;20024;-71
2022/11/27 03:16:10;;;;;;;10.02;4.50;;;;;;;2.16;100.00;101915.84;5095003;28;20481;-72
2022/11/27 03:19:12;;;;;;;6.50;3.80;;;;;;;2.17;100.00;101923.50;5090168;28;20073;-71
2022/11/27 03:21:41;;;;;;;6.53;4.15;;;;;;;2.20;100.00;101923.38;5090802;28;20078;-71
2022/11/27 03:24:08;;;;;;;5.35;3.83;;;;;;;2.15;100.00;101917.56;5098061;28;20544;-71
2022/11/27 03:26:35;;;;;;;7.78;3.53;;;;;;;2.13;100.00;101921.09;5093667;28;20055;-71
2022/11/27 03:29:03;;;;;;;5.55;3.28;;;;;;;2.21;100.00;101919.91;5089175;28;20028;-71
2022/11/27 03:31:30;;;;;;;7.85;4.45;;;;;;;2.22;100.00;101923.31;5090416;28;20043;-72
2022/11/27 03:33:56;;;;;;;7.20;3.42;;;;;;;2.16;100.00;101916.69;5094263;28;20036;-71
2022/11/27 03:36:22;;;;;;;4.50;3.10;;;;;;;2.11;100.00;101921.13;5090638;28;20054;-71
2022/11/27 03:38:49;;;;;;;4.75;3.15;;;;;;;2.08;100.00;101921.25;5090467;28;20447;-71
2022/11/27 03:41:17;;;;;;;4.65;3.03;;;;;;;2.07;100.00;101922.13;5090330;28;20441;-71
2022/11/27 03:43:55;;;;;;;5.10;3.50;;;;;;;2.03;100.00;101936.00;5092765;28;20040;-71
2022/11/27 03:46:41;;;;;;;7.55;2.97;;;;;;;1.94;100.00;101923.47;5087963;28;20038;-71
2022/11/27 03:49:33;;;;;;;5.57;3.57;;;;;;;1.90;100.00;101927.03;5047538;28;20058;-71
2022/11/27 03:52:04;;;;;;;3.95;2.70;;;;;;;1.90;100.00;101932.16;5061057;28;20286;-71
2022/11/27 03:54:39;;;;;;;3.45;2.55;;;;;;;1.88;100.00;101928.84;5093217;28;20066;-72
2022/11/27 03:57:12;;;;;;;6.13;2.83;;;;;;;1.88;100.00;101932.25;5090171;28;20078;-72
2022/11/27 03:59:42;;;;;;;7.88;2.78;;;;;;;1.87;100.00;101922.03;5089110;28;20064;-71
2022/11/27 04:02:16;;;;;;;4.03;2.90;;;;;;;1.85;100.00;101921.25;5087458;28;20031;-71
2022/11/27 04:04:42;;;;;;;3.40;2.78;;;;;;;1.89;100.00;101926.19;5090223;28;20036;-71
2022/11/27 04:07:15;;;;;;;5.50;2.72;;;;;;;1.89;100.00;101931.34;5089567;28;20543;-71
2022/11/27 04:09:41;;;;;;;5.82;3.20;;;;;;;1.85;100.00;101936.66;5089934;28;20524;-71
2022/11/27 04:12:06;;;;;;;7.03;2.58;;;;;;;1.90;100.00;101927.03;5091098;28;20027;-71
2022/11/27 04:14:32;;;;;;;3.00;1.75;;;;;;;1.90;100.00;101929.59;5089090;28;20020;-72
2022/11/27 04:16:57;;;;;;;2.72;1.90;;;;;;;1.87;100.00;101938.28;5088297;28;20023;-72
2022/11/27 04:19:22;;;;;;;4.22;2.20;;;;;;;1.89;100.00;101948.50;5090086;28;20032;-71
2022/11/27 04:21:48;;;;;;;5.72;1.92;;;;;;;1.89;100.00;101935.66;5091054;28;20028;-71
2022/11/27 04:24:13;;;;;;;4.72;1.90;;;;;;;1.90;100.00;101937.31;5085456;28;20055;-71
2022/11/27 04:26:39;;;;;;;8.73;2.33;;;;;;;1.89;100.00;101936.47;5094142;28;20024;-71
2022/11/27 04:29:04;;;;;;;4.50;2.35;;;;;;;1.86;100.00;101934.03;5088955;28;20451;-71
2022/11/27 04:31:30;;;;;;;3.35;1.58;;;;;;;1.84;100.00;101932.41;5089025;28;20036;-71
2022/11/27 04:33:55;;;;;;;5.32;1.52;;;;;;;1.78;100.00;101935.19;5092236;28;20024;-71
2022/11/27 04:36:20;;;;;;;3.45;2.45;;;;;;;1.82;100.00;101931.63;5092029;28;20032;-71
2022/11/27 04:38:46;;;;;;;3.78;2.08;;;;;;;1.83;100.00;101929.00;5087252;28;20360;-71
2022/11/27 04:41:11;;;;;;;2.65;1.88;;;;;;;1.82;100.00;101929.06;5091600;28;20505;-72
2022/11/27 04:43:37;;;;;;;3.20;1.38;;;;;;;1.77;100.00;101933.50;5087576;28;20086;-71
2022/11/27 04:46:02;;;;;;;3.35;1.95;;;;;;;1.73;100.00;101937.06;5089448;28;20028;-71
2022/11/27 04:48:28;;;;;;;5.95;1.95;;;;;;;1.78;100.00;101936.03;5089520;28;20040;-71
2022/11/27 04:50:54;;;;;;;2.67;1.92;;;;;;;1.75;100.00;101925.84;5089038;28;20060;-71
2022/11/27 04:53:20;;;;;;;4.05;2.10;;;;;;;1.77;100.00;101930.94;5086883;28;20167;-71
2022/11/27 04:55:45;;;;;;;3.97;2.00;;;;;;;1.74;100.00;101928.47;5088352;28;20106;-71
2022/11/27 04:58:10;;;;;;;4.95;1.60;;;;;;;1.74;100.00;101923.34;5088502;28;20040;-71
2022/11/27 05:00:36;;;;;;;3.53;2.25;;;;;;;1.73;100.00;101924.22;5082263;28;20100;-71
2022/11/27 05:03:01;;;;;;;6.55;2.25;;;;;;;1.84;100.00;101915.25;5089245;28;20024;-71
2022/11/27 05:05:27;;;;;;;4.32;3.08;;;;;;;1.93;100.00;101926.91;5090428;28;20046;-71
2022/11/27 05:07:52;;;;;;;4.38;2.15;;;;;;;1.92;100.00;101925.25;5088644;28;20483;-71
2022/11/27 05:10:18;;;;;;;3.72;2.30;;;;;;;1.82;100.00;101922.19;5089660;28;20533;-72
2022/11/27 05:12:43;;;;;;;3.97;2.65;;;;;;;1.80;100.00;101918.81;5088146;28;20028;-71
2022/11/27 05:15:08;;;;;;;5.57;2.20;;;;;;;1.80;100.00;101912.84;5090646;28;20113;-71
2022/11/27 05:17:34;;;;;;;5.95;2.33;;;;;;;1.78;100.00;101919.78;5088979;28;20073;-72
2022/11/27 05:19:59;;;;;;;4.50;2.50;;;;;;;1.72;100.00;101925.13;5087650;28;20043;-71
2022/11/27 05:22:25;;;;;;;5.55;2.60;;;;;;;1.63;100.00;101921.97;5089984;28;20431;-71
2022/11/27 05:24:50;;;;;;;4.97;2.65;;;;;;;1.65;100.00;101919.34;5088149;28;20487;-72
2022/11/27 05:27:16;;;;;;;7.43;2.33;;;;;;;1.65;100.00;101925.31;5085943;28;20035;-72
2022/11/27 05:29:42;;;;;;;4.78;2.45;;;;;;;1.71;100.00;101928.56;5087317;28;20021;-71
2022/11/27 05:32:07;;;;;;;4.07;2.63;;;;;;;1.76;100.00;101924.97;5088141;28;20043;-71
2022/11/27 05:34:33;;;;;;;11.98;4.65;;;;;;;1.70;100.00;101937.19;5087583;28;20044;-71
2022/11/27 05:36:59;;;;;;;5.10;3.38;;;;;;;1.84;100.00;101924.69;5081992;28;20028;-71
2022/11/27 05:39:25;;;;;;;5.50;2.97;;;;;;;1.89;100.00;101918.47;5086462;28;20467;-71
2022/11/27 05:41:50;;;;;;;7.00;3.67;;;;;;;1.83;100.00;101931.56;5091147;28;20035;-71
2022/11/27 05:44:15;;;;;;;8.82;3.53;;;;;;;1.98;100.00;101914.75;5086465;28;20043;-71
2022/11/27 05:46:42;;;;;;;7.40;3.70;;;;;;;2.05;100.00;101911.06;5083513;28;20046;-71
2022/11/27 05:49:10;;;;;;;13.02;7.88;;;;;;;2.12;100.00;101907.38;5085045;28;20040;-72
2022/11/27 05:51:36;;;;;;;21.38;7.85;;;;;;;2.10;100.00;101916.06;5095487;28;20026;-71
2022/11/27 05:54:01;;;;;;;6.32;3.92;;;;;;;2.05;100.00;101920.50;5088477;28;20032;-71
2022/11/27 05:56:27;;;;;;;7.13;4.03;;;;;;;2.01;100.00;101912.06;5091366;28;20483;-71
2022/11/27 05:58:52;;;;;;;7.93;3.25;;;;;;;1.98;100.00;101918.16;5088761;28;20032;-71
2022/11/27 06:01:18;;;;;;;6.88;3.88;;;;;;;1.98;100.00;101918.16;5086680;28;20042;-71
2022/11/27 06:03:44;;;;;;;7.85;4.60;;;;;;;1.93;100.00;101914.06;5085669;28;20025;-71
2022/11/27 06:06:13;;;;;;;10.00;5.53;;;;;;;1.88;100.00;101916.84;5089893;28;20532;-71
2022/11/27 06:08:39;;;;;;;9.48;5.00;;;;;;;1.86;100.00;101912.63;5088479;28;20039;-71
2022/11/27 06:11:10;;;;;;;7.65;4.47;;;;;;;1.76;100.00;101922.38;5087647;28;20390;-71
2022/11/27 06:13:36;;;;;;;8.32;5.22;;;;;;;1.70;100.00;101922.59;5088142;28;20382;-71
2022/11/27 06:16:11;;;;;;;9.35;5.10;;;;;;;1.67;100.00;101926.13;5087223;28;20036;-71
2022/11/27 06:18:37;;;;;;;8.57;4.03;;;;;;;1.73;100.00;101926.78;5084743;28;20675;-71
2022/11/27 06:21:11;;;;;;;5.72;3.63;;;;;;;1.80;100.00;101923.13;5096790;28;20035;-71
2022/11/27 06:23:38;;;;;;;6.35;4.32;;;;;;;1.78;100.00;101927.47;5091544;28;20047;-71
2022/11/27 06:26:21;;;;;;;8.80;4.38;;;;;;;1.79;100.00;101937.72;5093210;28;20047;-71
2022/11/27 06:28:48;;;;;;;6.30;3.78;;;;;;;1.80;100.00;101928.28;5091797;28;20024;-72
2022/11/27 06:31:17;;;;;;;5.70;3.55;;;;;;;1.85;100.00;101927.22;5090819;28;20036;-72
2022/11/27 06:33:42;;;;;;;6.78;3.88;;;;;;;1.81;100.00;101929.94;5089914;28;20043;-72
2022/11/27 06:36:08;;;;;;;6.55;3.95;;;;;;;1.70;100.00;101929.47;5096218;28;20491;-72
2022/11/27 06:38:35;;;;;;;6.15;3.90;;;;;;;1.64;100.00;101938.22;5089750;28;20020;-72
2022/11/27 06:41:16;;;;;;;7.00;3.80;;;;;;;1.73;100.00;101927.63;5087916;28;20059;-71
2022/11/27 06:43:42;;;;;;;6.32;4.75;;;;;;;1.74;100.00;101941.31;5092836;28;20032;-71
2022/11/27 06:46:12;;;;;;;8.38;3.95;;;;;;;1.73;100.00;101943.06;5089416;28;20181;-71
2022/11/27 06:48:38;;;;;;;8.93;5.13;;;;;;;1.81;100.00;101941.06;5091067;28;20481;-71
2022/11/27 06:51:06;;;;;;;10.40;5.00;;;;;;;1.90;100.00;101953.56;5095588;28;20028;-71
2022/11/27 06:53:34;;;;;;;11.45;4.93;;;;;;;2.05;100.00;101954.78;5087746;28;20042;-71
2022/11/27 06:56:03;;;;;;;6.65;4.43;;;;;;;2.09;100.00;101955.50;5093108;28;20035;-71
2022/11/27 06:58:28;;;;;;;9.90;5.30;;;;;;;2.06;100.00;101948.75;5095292;28;20024;-71
2022/11/27 07:00:58;;;;;;;11.65;6.70;;;;;;;2.07;100.00;101958.13;5088950;28;20086;-71
2022/11/27 07:03:24;;;;;;;8.10;5.63;;;;;;;2.06;100.00;101961.59;5088770;28;20032;-72
2022/11/27 07:05:49;;;;;;;9.52;6.30;;;;;;;2.00;100.00;101951.53;5089054;28;20028;-72
2022/11/27 07:08:14;;;;;;;9.13;5.60;;;;;;;1.95;100.00;101959.41;5095663;28;20047;-72
2022/11/27 07:10:40;;;;;;;6.60;5.00;;;;;;;1.98;100.00;101958.44;5092635;28;20027;-72
2022/11/27 07:13:05;;;;;;;9.57;5.85;;;;;;;2.04;100.00;101963.38;5094458;28;20028;-72
2022/11/27 07:15:31;;;;;;;8.73;5.68;;;;;;;2.09;100.00;101966.63;5092467;28;20507;-71
2022/11/27 07:17:57;;;;;;;10.75;6.22;;;;;;;2.11;100.00;101964.84;5105347;28;20038;-71
2022/11/27 07:20:22;;;;;;;9.90;6.03;;;;;;;2.19;100.00;101962.84;5092936;28;20467;-72
2022/11/27 07:22:48;;;;;;;8.40;5.32;;;;;;;2.35;100.00;101967.44;5093923;28;20028;-71
2022/11/27 07:25:13;;;;;;;10.98;6.85;;;;;;;2.36;100.00;101956.28;5092758;28;20035;-72
2022/11/27 07:27:38;;;;;;;12.95;7.32;;;;;;;2.48;100.00;101963.50;5085250;28;20020;-72
2022/11/27 07:30:04;;;;;;;11.98;7.05;;;;;;;2.74;100.00;101954.84;5092616;28;20474;-72
2022/11/27 07:32:30;;;;;;;9.13;5.75;;;;;;;3.19;100.00;101949.63;5091514;28;20040;-72
2022/11/27 07:34:56;;;;;;;9.65;4.50;;;;;;;3.30;100.00;101945.72;5094355;28;20089;-72
2022/11/27 07:37:21;;;;;;;19.05;12.13;;;;;;;3.26;100.00;101948.50;5088838;28;20063;-72
2022/11/27 07:39:46;;;;;;;10.98;8.23;;;;;;;3.16;100.00;101944.59;5088508;28;20109;-72
2022/11/27 07:42:12;;;;;;;13.00;7.60;;;;;;;3.18;100.00;101940.22;5091343;28;20032;-72
2022/11/27 07:44:37;;;;;;;11.43;7.60;;;;;;;3.21;100.00;101945.25;5089265;28;20036;-72
2022/11/27 07:47:03;;;;;;;15.75;10.23;;;;;;;3.29;100.00;101946.63;5088534;28;20073;-72
2022/11/27 07:49:28;;;;;;;16.42;8.18;;;;;;;3.42;100.00;101946.94;5088441;28;20032;-72
2022/11/27 07:51:53;;;;;;;11.43;8.45;;;;;;;3.51;100.00;101948.31;5089161;28;20034;-72
2022/11/27 07:54:19;;;;;;;10.75;7.97;;;;;;;3.55;100.00;101955.84;5089851;28;20491;-72
2022/11/27 07:56:44;;;;;;;12.90;7.47;;;;;;;3.71;100.00;101950.06;5095973;28;20486;-73
2022/11/27 07:59:10;;;;;;;9.45;6.70;;;;;;;3.77;100.00;101957.56;5088492;28;20031;-72
2022/11/27 08:01:35;;;;;;;13.13;6.97;;;;;;;3.81;100.00;101952.16;5095448;28;20074;-72
2022/11/27 08:04:01;;;;;;;13.38;6.65;;;;;;;3.83;100.00;101945.22;5094113;28;20118;-72
2022/11/27 08:06:27;;;;;;;9.95;5.97;;;;;;;3.94;100.00;101949.91;5091380;28;20107;-72
2022/11/27 08:08:55;;;;;;;8.13;3.85;;;;;;;4.13;100.00;101952.53;5090736;28;20150;-73
2022/11/27 08:11:28;;;;;;;10.35;3.75;;;;;;;4.45;100.00;101946.78;5088994;28;20660;-72
2022/11/27 08:13:59;;;;;;;5.28;3.20;;;;;;;4.66;100.00;101947.56;5090105;28;20478;-72
2022/11/27 08:16:25;;;;;;;7.45;2.40;;;;;;;4.89;100.00;101939.56;5087174;28;20398;-72
2022/11/27 08:18:51;;;;;;;4.05;2.17;;;;;;;5.17;100.00;101943.44;5099887;28;20024;-72
2022/11/27 08:21:17;;;;;;;4.43;2.78;;;;;;;5.26;100.00;101938.63;5093888;28;20039;-72
2022/11/27 08:23:43;;;;;;;6.10;1.90;;;;;;;5.21;100.00;101935.44;5093322;28;20059;-72
2022/11/27 08:26:09;;;;;;;6.35;2.60;;;;;;;5.22;100.00;101931.09;5091527;28;20048;-73
2022/11/27 08:28:36;;;;;;;8.85;3.10;;;;;;;5.22;100.00;101933.69;5086594;28;20040;-73
2022/11/27 08:31:04;;;;;;;4.22;2.15;;;;;;;5.41;100.00;101934.47;5091751;28;20039;-73
2022/11/27 08:33:31;;;;;;;5.15;2.45;;;;;;;5.60;100.00;101927.47;5093414;28;20114;-73
2022/11/27 08:35:57;;;;;;;11.57;4.13;;;;;;;5.62;100.00;101929.97;5086042;28;20070;-72
2022/11/27 08:38:23;;;;;;;6.75;4.20;;;;;;;5.59;100.00;101936.13;5088781;28;20047;-73
2022/11/27 08:40:59;;;;;;;17.33;8.35;;;;;;;5.59;100.00;101930.97;5087005;28;20036;-73
2022/11/27 08:43:25;;;;;;;10.45;6.70;;;;;;;5.62;100.00;101930.81;5085187;28;20046;-73
2022/11/27 08:45:51;;;;;;;12.52;7.45;;;;;;;5.73;100.00;101938.00;5093745;28;20462;-73
2022/11/27 08:48:17;;;;;;;3.33;2.38;;;;;;;6.02;100.00;101941.75;5088355;28;20032;-72
2022/11/27 08:50:43;;;;;;;5.93;3.00;;;;;;;6.18;100.00;101939.16;5088062;28;20028;-72
2022/11/27 08:53:09;;;;;;;3.30;1.50;;;;;;;6.25;100.00;101943.94;5088133;28;20039;-72
2022/11/27 08:55:34;;;;;;;6.97;1.95;;;;;;;6.49;100.00;101953.94;5091989;28;20052;-72
2022/11/27 08:58:00;;;;;;;3.92;1.48;;;;;;;6.69;100.00;101952.84;5090334;28;20102;-72
2022/11/27 09:00:25;;;;;;;4.38;2.38;;;;;;;6.77;100.00;101959.28;5087263;28;20035;-73
2022/11/27 09:02:51;;;;;;;5.53;2.08;;;;;;;6.75;100.00;101955.09;5088607;28;20081;-72
2022/11/27 09:05:16;;;;;;;3.65;2.03;;;;;;;6.71;100.00;101961.38;5087344;28;20042;-72
2022/11/27 09:07:41;;;;;;;5.60;2.53;;;;;;;6.64;100.00;101963.44;5091012;28;20069;-72
2022/11/27 09:10:07;;;;;;;5.45;2.08;;;;;;;6.65;100.00;101965.94;5090057;28;20112;-72
2022/11/27 09:12:33;;;;;;;5.82;3.25;;;;;;;6.69;100.00;101965.78;5089852;28;20040;-73
2022/11/27 09:14:58;;;;;;;6.45;3.67;;;;;;;6.73;100.00;101968.13;5086649;28;20105;-72
2022/11/27 09:17:24;;;;;;;5.68;2.42;;;;;;;6.70;100.00;101965.69;5090257;28;20028;-72
2022/11/27 09:19:49;;;;;;;3.28;2.05;;;;;;;6.62;100.00;101962.69;5097219;28;20032;-73
2022/11/27 09:22:15;;;;;;;4.82;2.15;;;;;;;6.69;100.00;101963.19;5089315;28;20046;-72
2022/11/27 09:24:40;;;;;;;4.95;1.85;;;;;;;6.80;100.00;101956.53;5087652;28;20055;-72
2022/11/27 09:27:06;;;;;;;5.00;1.85;;;;;;;6.84;100.00;101964.97;5092946;28;20028;-73
2022/11/27 09:29:34;;;;;;;3.30;1.70;;;;;;;6.93;100.00;101954.94;5093958;28;20058;-73
2022/11/27 09:31:59;;;;;;;3.95;1.98;;;;;;;6.98;100.00;101952.09;5089429;28;20106;-73
2022/11/27 09:34:25;;;;;;;3.67;1.80;;;;;;;7.05;100.00;101953.44;5092591;28;20032;-73
2022/11/27 09:36:51;;;;;;;5.05;1.83;;;;;;;7.15;100.00;101945.94;5091901;28;20386;-73
2022/11/27 09:39:18;;;;;;;10.60;2.38;;;;;;;7.25;100.00;101941.91;5088668;28;20028;-73
2022/11/27 09:41:45;;;;;;;4.07;1.73;;;;;;;7.28;100.00;101944.34;5083813;28;20069;-73
2022/11/27 09:44:16;;;;;;;3.03;1.48;;;;;;;7.28;100.00;101941.75;5087338;28;20056;-73
2022/11/27 09:46:43;;;;;;;2.22;1.08;;;;;;;7.54;98.58;101938.50;5095558;28;20151;-73
2022/11/27 09:49:14;;;;;;;3.95;0.95;;;;;;;7.61;97.27;101928.56;5091112;28;20470;-73
2022/11/27 09:51:49;;;;;;;2.20;0.75;;;;;;;7.63;96.29;101935.34;5090755;28;20027;-73
2022/11/27 09:54:31;;;;;;;2.65;0.60;;;;;;;7.65;94.02;101930.91;5084725;28;20036;-73
2022/11/27 09:56:58;;;;;;;2.88;0.70;;;;;;;7.88;92.00;101928.72;5088489;28;20042;-69
2022/11/27 09:59:40;;;;;;;4.80;0.77;;;;;;;8.14;90.68;101924.53;5085206;28;20024;-74
2022/11/27 10:02:16;;;;;;;1.48;0.47;;;;;;;8.21;88.75;101915.44;5086212;28;20580;-74
2022/11/27 10:04:42;;;;;;;2.00;0.60;;;;;;;8.22;89.02;101912.75;5093426;28;20067;-74
2022/11/27 10:07:08;;;;;;;2.13;0.80;;;;;;;8.14;89.59;101909.78;5095863;28;20031;-73
2022/11/27 10:09:53;;;;;;;1.65;0.40;;;;;;;8.05;89.62;101907.75;5097242;28;20031;-74
2022/11/27 10:12:34;;;;;;;1.20;0.60;;;;;;;8.05;89.29;101902.56;5094569;28;20024;-74
2022/11/27 10:15:38;;;;;;;4.32;0.60;;;;;;;8.07;88.67;101902.47;5094699;28;20032;-74
2022/11/27 10:18:36;;;;;;;2.47;0.65;;;;;;;8.05;88.94;101901.72;5063657;28;20036;-73
2022/11/27 10:21:35;;;;;;;2.45;0.80;;;;;;;8.04;89.39;101893.09;5090571;28;20097;-73
2022/11/27 10:24:36;;;;;;;2.63;0.60;;;;;;;8.10;89.20;101887.53;5090346;28;20086;-74
2022/11/27 10:27:19;;;;;;;4.60;0.80;;;;;;;8.16;90.54;101878.53;5059249;28;20059;-74
2022/11/27 10:29:51;;;;;;;2.85;0.77;;;;;;;8.17;90.25;101869.81;5089611;28;20059;-74
2022/11/27 10:32:20;;;;;;;3.90;1.05;;;;;;;8.24;89.70;101874.56;5089424;28;20032;-74
2022/11/27 10:34:54;;;;;;;1.88;0.88;;;;;;;8.34;88.83;101863.63;5091718;28;20077;-73
2022/11/27 10:37:19;;;;;;;3.85;1.10;;;;;;;8.32;88.78;101866.28;5088511;28;20024;-73
2022/11/27 10:40:02;;;;;;;3.30;1.20;;;;;;;8.38;86.91;101859.91;5088866;28;20032;-74
2022/11/27 10:42:42;;;;;;;4.35;1.13;;;;;;;8.41;87.77;101864.91;5091769;28;20036;-73
2022/11/27 10:45:23;;;;;;;2.28;0.90;;;;;;;8.35;87.32;101857.50;5089878;28;20336;-73
2022/11/27 10:47:48;;;;;;;2.50;0.40;;;;;;;8.32;87.33;101851.56;5089263;28;20074;-74
2022/11/27 10:50:16;;;;;;;1.45;0.40;;;;;;;8.37;87.28;101853.88;5089077;28;20024;-74
2022/11/27 10:52:51;;;;;;;2.35;0.60;;;;;;;8.43;86.51;101847.47;5090760;28;20559;-74
2022/11/27 10:55:27;;;;;;;2.33;0.60;;;;;;;8.46;85.91;101836.88;5090293;28;20371;-74
2022/11/27 10:58:25;;;;;;;3.03;0.90;;;;;;;8.48;81.38;101829.84;5091080;28;20058;-74
2022/11/27 11:01:06;;;;;;;2.22;0.50;;;;;;;8.49;83.65;101826.31;5086561;28;20080;-73
2022/11/27 11:03:32;;;;;;;6.00;1.75;;;;;;;8.62;84.08;101819.38;5091840;28;20089;-73
2022/11/27 11:06:05;;;;;;;3.15;0.70;;;;;;;8.69;83.42;101812.84;5087097;28;20036;-73
2022/11/27 11:08:33;;;;;;;3.33;0.73;;;;;;;8.77;82.45;101820.97;5090586;28;20471;-73
2022/11/27 11:11:05;;;;;;;2.22;0.70;;;;;;;8.81;82.42;101811.22;5086451;28;20333;-70
2022/11/27 11:13:40;;;;;;;1.98;0.70;;;;;;;8.84;82.63;101813.63;5089515;28;20039;-68
2022/11/27 11:16:16;;;;;;;1.98;0.70;;;;;;;8.84;82.25;101806.66;5095617;28;20535;-72
2022/11/27 11:18:43;;;;;;;3.25;0.77;;;;;;;8.84;82.56;101805.81;5091581;28;20032;-75
2022/11/27 11:21:17;;;;;;;2.35;0.43;;;;;;;8.85;81.93;101805.72;5089082;28;20500;-75
2022/11/27 11:23:45;;;;;;;1.48;0.40;;;;;;;8.92;81.28;101813.94;5085728;28;20046;-75
2022/11/27 11:26:19;;;;;;;1.48;0.63;;;;;;;8.93;81.24;101813.03;5091328;28;20059;-72
2022/11/27 11:28:54;;;;;;;1.55;0.63;;;;;;;8.90;81.77;101803.66;5090640;28;20481;-73
2022/11/27 11:31:28;;;;;;;2.20;0.43;;;;;;;8.88;82.52;101802.91;5092863;28;20039;-74